Aviation Digital Data Service (ADDS)

Output produced by METARs form (1803 UTC 19 October 2017)
found at http://www.aviationweather.gov/adds/metars/
 
SYCJ 191800Z 09016KT 9999 FEW017CB BKN018 29/24 Q1010 CB W-NW NOSIG
TAF SYCJ 191729Z 1918/2018 09010KT 9999 SCT022 
     BECMG 1922/2000 06004KT FEW012 
     BECMG 2011/2113 10012KT BKN018
       
TAF SYKM 191001Z 1912/1923 07014KT 9999 BKN022 SCT100
       
TAF SYLT 191001Z 1912/1923 07012KT 9999 BKN023 SCT100